Time;durP1;ratioP1;P1;durP2;ratioP2;P2;SDS_P1;SDS_P2;PMS_P1;PMS_P2;Temp;Humidity;BMP_temperature;BMP_pressure;BME280_temperature;BME280_humidity;BME280_pressure;Samples;Min_cycle;Max_cycle;Signal;HPM_P1;HPM_P2
2022/08/19 00:02:09;;;;;;;24.37;22.20;;;17.30;99.90;;;;;;5072521;28;20455;-67
2022/08/19 00:04:37;;;;;;;21.13;19.23;;;17.30;99.90;;;;;;5077792;28;20486;-67
2022/08/19 00:07:05;;;;;;;21.83;19.90;;;17.20;99.90;;;;;;5078205;28;20555;-67
2022/08/19 00:09:34;;;;;;;23.60;21.43;;;17.10;99.90;;;;;;5075058;28;20458;-67
2022/08/19 00:12:01;;;;;;;24.13;21.83;;;17.00;99.90;;;;;;5078855;28;20454;-66
2022/08/19 00:14:31;;;;;;;23.80;21.33;;;17.00;99.90;;;;;;5070294;28;20465;-66
2022/08/19 00:17:02;;;;;;;24.67;22.00;;;16.90;99.90;;;;;;5076257;28;20467;-67
2022/08/19 00:19:29;;;;;;;22.37;20.47;;;16.80;99.90;;;;;;5080864;28;20474;-66
2022/08/19 00:21:59;;;;;;;23.13;20.80;;;16.80;99.90;;;;;;5084026;28;20463;-66
2022/08/19 00:24:28;;;;;;;23.53;21.50;;;16.80;99.90;;;;;;5080031;28;20499;-67
2022/08/19 00:26:57;;;;;;;22.40;20.40;;;16.80;99.90;;;;;;5076233;28;20533;-66
2022/08/19 00:29:25;;;;;;;22.90;21.00;;;16.80;99.90;;;;;;5081512;28;20810;-67
2022/08/19 00:31:53;;;;;;;23.90;21.90;;;16.80;99.90;;;;;;5071697;28;20455;-66
2022/08/19 00:34:20;;;;;;;23.13;21.23;;;16.80;99.90;;;;;;5079283;28;20474;-66
2022/08/19 00:36:48;;;;;;;23.47;21.33;;;16.80;99.90;;;;;;5079830;28;20465;-67
2022/08/19 00:39:17;;;;;;;23.00;21.10;;;16.80;99.90;;;;;;5080946;28;20462;-67
2022/08/19 00:41:47;;;;;;;23.47;21.17;;;16.80;99.90;;;;;;5073999;28;20451;-67
2022/08/19 00:44:16;;;;;;;29.10;26.60;;;16.80;99.90;;;;;;5080170;28;20562;-66
2022/08/19 00:46:45;;;;;;;23.50;21.50;;;16.70;99.90;;;;;;5077345;28;20454;-68
2022/08/19 00:49:15;;;;;;;25.00;22.80;;;16.70;99.90;;;;;;5079872;28;20469;-68
2022/08/19 00:51:44;;;;;;;21.83;19.97;;;16.80;99.90;;;;;;5083506;28;20505;-67
2022/08/19 00:54:11;;;;;;;22.27;20.37;;;16.80;99.90;;;;;;5079953;28;20483;-67
2022/08/19 00:56:41;;;;;;;29.17;26.37;;;16.70;99.90;;;;;;5079575;28;20467;-68
2022/08/19 00:59:09;;;;;;;28.27;25.70;;;16.70;99.90;;;;;;5078761;28;20462;-67
2022/08/19 01:01:38;;;;;;;26.20;23.97;;;16.70;99.90;;;;;;5078608;28;20457;-68
2022/08/19 01:04:05;;;;;;;28.20;25.80;;;16.70;99.90;;;;;;5080501;28;20790;-67
2022/08/19 01:06:33;;;;;;;27.00;24.60;;;16.60;99.90;;;;;;5080579;28;21086;-67
2022/08/19 01:09:00;;;;;;;31.00;27.80;;;16.60;99.90;;;;;;5080543;28;21009;-67
2022/08/19 01:11:28;;;;;;;28.10;23.77;;;16.70;99.90;;;;;;5076676;28;20478;-67
2022/08/19 01:13:57;;;;;;;28.83;26.20;;;16.70;99.90;;;;;;5079875;28;20972;-66
2022/08/19 01:16:28;;;;;;;27.47;25.07;;;16.60;99.90;;;;;;5085688;28;20864;-66
2022/08/19 01:18:56;;;;;;;26.50;23.90;;;16.60;99.90;;;;;;5084127;28;20516;-68
2022/08/19 01:21:28;;;;;;;26.50;24.20;;;16.70;99.90;;;;;;5077598;28;20461;-68
2022/08/19 01:23:57;;;;;;;28.00;25.30;;;16.70;99.90;;;;;;5084559;28;20489;-67
2022/08/19 01:26:26;;;;;;;31.70;28.40;;;16.60;99.90;;;;;;5080386;28;20825;-67
2022/08/19 01:28:56;;;;;;;30.73;27.73;;;16.50;99.90;;;;;;5079093;28;20458;-68
2022/08/19 01:31:30;;;;;;;29.67;26.77;;;16.60;99.90;;;;;;5080123;28;20973;-68
2022/08/19 01:33:57;;;;;;;37.00;30.10;;;16.50;99.90;;;;;;5084908;28;20477;-66
2022/08/19 01:36:29;;;;;;;29.37;26.67;;;16.50;99.90;;;;;;5083469;28;20515;-68
2022/08/19 01:38:59;;;;;;;37.70;28.83;;;16.50;99.90;;;;;;5079182;28;20497;-66
2022/08/19 01:41:27;;;;;;;28.07;25.17;;;16.40;99.90;;;;;;5081944;28;20455;-67
2022/08/19 01:43:55;;;;;;;26.50;24.07;;;16.40;99.90;;;;;;5080898;28;20493;-67
2022/08/19 01:46:24;;;;;;;29.40;26.73;;;16.40;99.90;;;;;;5083784;28;20454;-68
2022/08/19 01:48:53;;;;;;;29.93;27.17;;;16.10;99.90;;;;;;5090656;28;20485;-68
2022/08/19 01:51:20;;;;;;;31.50;26.37;;;15.90;99.90;;;;;;5078697;28;20466;-66
2022/08/19 01:53:49;;;;;;;32.07;28.60;;;15.80;99.90;;;;;;5079940;28;20470;-67
2022/08/19 01:56:18;;;;;;;28.50;25.63;;;15.80;99.90;;;;;;5075280;28;20470;-67
2022/08/19 01:58:51;;;;;;;39.20;35.00;;;15.70;99.90;;;;;;5086099;28;20555;-68
2022/08/19 02:01:19;;;;;;;35.57;30.37;;;15.70;99.90;;;;;;5077824;28;21031;-66
2022/08/19 02:03:47;;;;;;;38.13;33.33;;;15.90;99.90;;;;;;5084647;28;20829;-66
2022/08/19 02:06:16;;;;;;;35.50;30.67;;;15.90;99.90;;;;;;5079312;28;20462;-67
2022/08/19 02:08:45;;;;;;;34.30;30.27;;;15.90;99.90;;;;;;5075398;28;20894;-66
2022/08/19 02:11:22;;;;;;;36.10;31.83;;;15.70;99.90;;;;;;5088744;28;20454;-67
2022/08/19 02:13:50;;;;;;;37.90;32.40;;;15.60;99.90;;;;;;5086206;28;20549;-66
2022/08/19 02:16:21;;;;;;;41.43;34.07;;;15.50;99.90;;;;;;5079022;28;20906;-67
2022/08/19 02:18:48;;;;;;;44.00;38.63;;;15.50;99.90;;;;;;5078384;28;20516;-66
2022/08/19 02:21:16;;;;;;;47.10;39.43;;;15.50;99.90;;;;;;5083538;28;20667;-67
2022/08/19 02:23:43;;;;;;;58.90;44.80;;;15.60;99.90;;;;;;5083730;28;20485;-67
2022/08/19 02:26:11;;;;;;;56.17;42.40;;;15.70;99.90;;;;;;5080791;28;20470;-67
2022/08/19 02:28:39;;;;;;;48.20;42.03;;;15.70;99.90;;;;;;5076710;28;20477;-67
2022/08/19 02:31:10;;;;;;;52.90;42.47;;;15.80;99.90;;;;;;5075697;28;20486;-67
2022/08/19 02:33:37;;;;;;;56.43;42.40;;;15.80;99.90;;;;;;5083250;28;20466;-68
2022/08/19 02:36:05;;;;;;;45.47;40.47;;;15.70;99.90;;;;;;5077126;28;20471;-67
2022/08/19 02:38:32;;;;;;;48.70;40.70;;;15.60;99.90;;;;;;5082108;28;20462;-67
2022/08/19 02:41:03;;;;;;;49.27;41.00;;;15.60;99.90;;;;;;5078142;28;20489;-67
2022/08/19 02:43:32;;;;;;;49.53;41.07;;;15.50;99.90;;;;;;5080569;28;20466;-68
2022/08/19 02:46:01;;;;;;;59.00;44.70;;;15.50;99.90;;;;;;5077887;28;20450;-67
2022/08/19 02:48:28;;;;;;;55.30;47.90;;;15.50;99.90;;;;;;5082379;28;20470;-68
2022/08/19 02:50:56;;;;;;;59.70;45.97;;;15.50;99.90;;;;;;5077531;28;20459;-68
2022/08/19 02:53:28;;;;;;;61.53;47.23;;;15.50;99.90;;;;;;5082266;28;20881;-66
2022/08/19 02:55:55;;;;;;;57.93;46.97;;;15.60;99.90;;;;;;5082771;28;20458;-66
2022/08/19 02:58:24;;;;;;;57.67;45.93;;;15.60;99.90;;;;;;5081816;28;20477;-67
2022/08/19 03:00:53;;;;;;;56.53;46.60;;;15.70;99.90;;;;;;5077545;28;20475;-66
2022/08/19 03:03:21;;;;;;;58.77;47.93;;;15.70;99.90;;;;;;5075891;28;20514;-67
2022/08/19 03:05:49;;;;;;;60.07;51.70;;;15.70;99.90;;;;;;5081546;28;20496;-66
2022/08/19 03:08:16;;;;;;;69.20;52.67;;;15.80;99.90;;;;;;5084541;28;20454;-68
2022/08/19 03:10:46;;;;;;;64.50;50.70;;;15.80;99.90;;;;;;5079401;28;20466;-66
2022/08/19 03:13:14;;;;;;;67.87;51.33;;;15.80;99.90;;;;;;5077932;28;20470;-66
2022/08/19 03:15:43;;;;;;;65.70;54.07;;;15.90;99.90;;;;;;5083402;28;20497;-67
2022/08/19 03:18:11;;;;;;;77.27;55.77;;;16.00;99.90;;;;;;5074996;28;20469;-66
2022/08/19 03:20:43;;;;;;;75.40;55.00;;;16.00;99.90;;;;;;5077465;28;20470;-66
2022/08/19 03:23:12;;;;;;;73.40;56.00;;;16.10;99.90;;;;;;5080205;28;20945;-67
2022/08/19 03:25:43;;;;;;;67.83;51.47;;;16.10;99.90;;;;;;5076693;28;20495;-67
2022/08/19 03:28:11;;;;;;;73.90;56.63;;;16.10;99.90;;;;;;5073790;28;20825;-66
2022/08/19 03:30:40;;;;;;;72.13;55.50;;;16.10;99.90;;;;;;5080089;28;20470;-67
2022/08/19 03:33:08;;;;;;;70.63;54.23;;;16.10;99.90;;;;;;5073237;28;20456;-66
2022/08/19 03:35:37;;;;;;;75.10;56.20;;;16.10;99.90;;;;;;5073970;28;20969;-65
2022/08/19 03:38:05;;;;;;;74.10;57.63;;;16.10;99.90;;;;;;5085475;28;20531;-65
2022/08/19 03:40:34;;;;;;;68.97;54.97;;;16.00;99.90;;;;;;5077489;28;20450;-66
2022/08/19 03:43:02;;;;;;;79.17;55.77;;;16.00;99.90;;;;;;5076556;28;20461;-66
2022/08/19 03:45:29;;;;;;;77.17;59.63;;;16.00;99.90;;;;;;5076926;28;21060;-67
2022/08/19 03:47:56;;;;;;;79.13;57.27;;;16.00;99.90;;;;;;5079313;28;20466;-66
2022/08/19 03:50:24;;;;;;;75.97;57.47;;;16.10;99.90;;;;;;5081716;28;20458;-65
2022/08/19 03:52:52;;;;;;;76.93;59.00;;;16.10;99.90;;;;;;5078072;28;21110;-66
2022/08/19 03:55:20;;;;;;;77.90;58.80;;;16.10;99.90;;;;;;5079328;28;20459;-67
2022/08/19 03:57:48;;;;;;;75.40;58.57;;;16.10;99.90;;;;;;5080900;28;20557;-66
2022/08/19 04:00:16;;;;;;;73.90;57.27;;;16.10;99.90;;;;;;5076424;28;20617;-66
2022/08/19 04:02:43;;;;;;;74.47;57.10;;;16.10;99.90;;;;;;5060230;28;20463;-65
2022/08/19 04:05:10;;;;;;;76.20;56.90;;;16.10;99.90;;;;;;5049316;28;20494;-67
2022/08/19 04:07:37;;;;;;;79.50;60.27;;;16.10;99.90;;;;;;5048860;28;20451;-67
2022/08/19 04:10:05;;;;;;;83.27;60.10;;;16.10;99.90;;;;;;5048980;28;20549;-66
2022/08/19 04:12:33;;;;;;;73.00;56.53;;;16.10;99.90;;;;;;5048908;28;20506;-67
2022/08/19 04:15:00;;;;;;;83.87;58.80;;;16.10;99.90;;;;;;5048023;28;21172;-67
2022/08/19 04:17:27;;;;;;;74.90;56.40;;;16.00;99.90;;;;;;5048651;28;20462;-65
2022/08/19 04:19:54;;;;;;;83.37;57.87;;;16.10;99.90;;;;;;5048525;28;20466;-66
2022/08/19 04:22:21;;;;;;;77.30;54.60;;;16.10;99.90;;;;;;5047933;28;20962;-68
2022/08/19 04:24:48;;;;;;;76.03;55.10;;;16.10;99.90;;;;;;5048680;28;20625;-66
2022/08/19 04:27:16;;;;;;;78.90;53.40;;;16.20;99.90;;;;;;5048295;28;20465;-66
2022/08/19 04:29:44;;;;;;;77.60;54.53;;;16.30;99.90;;;;;;5048496;28;20482;-68
2022/08/19 04:32:13;;;;;;;74.77;54.37;;;16.40;99.90;;;;;;5047290;28;21108;-67
2022/08/19 04:34:40;;;;;;;70.77;52.00;;;16.50;99.90;;;;;;5048975;28;20468;-68
2022/08/19 04:37:11;;;;;;;82.97;53.10;;;16.60;99.90;;;;;;5048167;28;20544;-67
2022/08/19 04:42:41;;;;;;;73.60;50.90;;;16.70;99.90;;;;;;5048347;28;20546;-67
2022/08/19 04:45:12;;;;;;;78.40;54.17;;;16.80;99.90;;;;;;5047663;28;21244;-69
2022/08/19 04:47:40;;;;;;;75.17;52.10;;;16.90;99.90;;;;;;5048204;28;20667;-68
2022/08/19 04:50:08;;;;;;;80.33;52.43;;;16.90;99.90;;;;;;5048792;28;20474;-67
2022/08/19 04:52:35;;;;;;;78.13;54.17;;;16.90;99.90;;;;;;5048506;28;21226;-68
2022/08/19 04:55:02;;;;;;;72.13;51.37;;;17.00;99.90;;;;;;5047572;28;20473;-67
2022/08/19 04:57:29;;;;;;;75.67;53.57;;;17.00;99.90;;;;;;5048094;28;20492;-66
2022/08/19 04:59:56;;;;;;;66.33;50.57;;;17.10;99.90;;;;;;5047864;28;20471;-68
2022/08/19 05:02:25;;;;;;;72.00;52.70;;;17.10;99.90;;;;;;5047255;28;20660;-66
2022/08/19 05:04:56;;;;;;;65.90;51.00;;;17.10;99.90;;;;;;5048276;28;20501;-65
2022/08/19 05:07:23;;;;;;;77.07;53.00;;;17.10;99.90;;;;;;5047544;28;20492;-67
2022/08/19 05:09:50;;;;;;;77.27;52.27;;;17.20;99.90;;;;;;5046965;28;20475;-66
2022/08/19 05:12:17;;;;;;;69.93;53.20;;;17.30;99.90;;;;;;5047160;28;20498;-66
2022/08/19 05:14:45;;;;;;;79.33;53.30;;;17.30;99.90;;;;;;5043232;28;20585;-66
2022/08/19 05:17:13;;;;;;;78.87;53.37;;;17.30;99.90;;;;;;5027144;28;20997;-68
2022/08/19 05:22:34;;;;;;;68.07;53.77;;;17.30;99.90;;;;;;5026798;28;20463;-68
2022/08/19 05:25:02;;;;;;;74.63;53.47;;;17.30;99.90;;;;;;5026081;28;20478;-68
2022/08/19 05:27:29;;;;;;;71.37;54.70;;;17.40;99.90;;;;;;5052332;28;20458;-67
2022/08/19 05:29:56;;;;;;;70.20;52.60;;;17.40;99.90;;;;;;5049773;28;20460;-67
2022/08/19 05:32:24;;;;;;;72.57;53.00;;;17.40;99.90;;;;;;5037336;28;20473;-68
2022/08/19 05:34:53;;;;;;;75.00;54.83;;;17.40;99.90;;;;;;5029817;28;20458;-68
2022/08/19 05:37:20;;;;;;;72.83;55.60;;;17.50;99.90;;;;;;5029366;28;20962;-69
2022/08/19 05:39:47;;;;;;;88.07;57.17;;;17.50;99.90;;;;;;5029105;28;21075;-68
2022/08/19 05:42:14;;;;;;;80.40;56.80;;;17.50;99.90;;;;;;5030340;28;21045;-68
2022/08/19 05:44:44;;;;;;;77.30;56.73;;;17.60;99.90;;;;;;5029502;28;20485;-67
2022/08/19 05:47:12;;;;;;;83.30;57.57;;;17.60;99.90;;;;;;5030374;28;20472;-66
2022/08/19 05:49:40;;;;;;;88.13;55.23;;;17.60;99.90;;;;;;5028645;28;20551;-68
2022/08/19 05:52:12;;;;;;;76.40;56.80;;;17.70;99.90;;;;;;5030378;28;20497;-68
2022/08/19 05:54:41;;;;;;;85.33;59.47;;;17.80;99.90;;;;;;5030543;28;20875;-68
2022/08/19 05:57:08;;;;;;;83.47;59.90;;;17.80;99.90;;;;;;5028523;28;20510;-66
2022/08/19 05:59:36;;;;;;;85.23;58.97;;;17.90;99.90;;;;;;5026574;28;20467;-68
2022/08/19 06:02:04;;;;;;;86.23;59.17;;;18.00;99.90;;;;;;5027574;28;20490;-68
2022/08/19 06:04:31;;;;;;;91.10;59.53;;;18.10;99.90;;;;;;5027780;28;20560;-68
2022/08/19 06:06:58;;;;;;;88.20;60.30;;;18.10;99.90;;;;;;5027763;28;20483;-67
2022/08/19 06:09:27;;;;;;;80.30;60.00;;;18.20;99.90;;;;;;5026041;28;21241;-68
2022/08/19 06:11:57;;;;;;;88.87;58.53;;;18.30;99.90;;;;;;5028196;28;20468;-67
2022/08/19 06:14:26;;;;;;;91.57;60.77;;;18.30;99.90;;;;;;5028791;28;20474;-68
2022/08/19 06:16:53;;;;;;;95.57;59.40;;;18.40;99.90;;;;;;5027064;28;20911;-68
2022/08/19 06:19:24;;;;;;;89.17;62.60;;;18.40;99.90;;;;;;5029687;28;20456;-67
2022/08/19 06:21:52;;;;;;;85.60;58.73;;;18.40;99.90;;;;;;5028981;28;21302;-68
2022/08/19 06:24:23;;;;;;;87.07;57.60;;;18.50;99.90;;;;;;5028649;28;21064;-67
2022/08/19 06:26:53;;;;;;;90.50;59.50;;;18.60;99.90;;;;;;5028047;28;20476;-68
2022/08/19 06:29:22;;;;;;;85.43;57.70;;;18.60;99.90;;;;;;5026955;28;20507;-68
2022/08/19 06:31:54;;;;;;;95.63;61.50;;;18.60;99.90;;;;;;5028333;28;20467;-67
2022/08/19 06:34:21;;;;;;;96.80;60.57;;;18.70;99.90;;;;;;5028474;28;20459;-68
2022/08/19 06:36:50;;;;;;;96.73;58.37;;;18.70;99.90;;;;;;5029187;28;20602;-68
2022/08/19 06:39:19;;;;;;;91.57;57.47;;;18.80;99.90;;;;;;5029253;28;20451;-68
2022/08/19 06:41:48;;;;;;;97.53;60.23;;;19.00;99.90;;;;;;5030515;28;20916;-67
2022/08/19 06:44:17;;;;;;;96.43;59.67;;;19.00;99.90;;;;;;5031578;28;20868;-67
2022/08/19 06:46:44;;;;;;;95.10;58.03;;;19.00;99.90;;;;;;5029576;28;20501;-68
2022/08/19 06:49:13;;;;;;;95.13;56.83;;;19.10;99.90;;;;;;5029950;28;20460;-68
2022/08/19 06:51:41;;;;;;;100.53;58.47;;;19.20;99.90;;;;;;5030272;28;20492;-69
2022/08/19 06:54:08;;;;;;;99.63;58.03;;;19.40;99.90;;;;;;5030137;28;20486;-69
2022/08/19 06:56:35;;;;;;;92.40;57.10;;;19.60;99.90;;;;;;5029388;28;20559;-69
2022/08/19 06:59:05;;;;;;;88.67;55.40;;;19.90;99.90;;;;;;5036956;28;20512;-68
2022/08/19 07:01:38;;;;;;;98.40;54.20;;;20.20;99.90;;;;;;5057159;28;20487;-70
2022/08/19 07:04:08;;;;;;;74.40;53.00;;;20.30;99.90;;;;;;5057822;28;20464;-70
2022/08/19 07:06:35;;;;;;;84.77;56.53;;;20.10;99.90;;;;;;5060865;28;20819;-70
2022/08/19 07:09:03;;;;;;;79.00;53.10;;;20.20;99.90;;;;;;5040362;28;20993;-69
2022/08/19 07:11:30;;;;;;;83.80;53.07;;;20.30;99.90;;;;;;5029847;28;20463;-69
2022/08/19 07:13:57;;;;;;;65.90;48.77;;;20.40;99.90;;;;;;5029937;28;20610;-68
2022/08/19 07:16:24;;;;;;;69.17;49.67;;;20.60;99.90;;;;;;5029345;28;20479;-68
2022/08/19 07:18:52;;;;;;;60.43;46.53;;;20.70;99.90;;;;;;5030421;28;20562;-68
2022/08/19 07:21:22;;;;;;;59.50;45.80;;;20.90;99.90;;;;;;5029932;28;20456;-67
2022/08/19 07:23:50;;;;;;;60.20;45.20;;;21.00;99.90;;;;;;5028983;28;20843;-67
2022/08/19 07:26:20;;;;;;;56.50;45.47;;;21.00;99.90;;;;;;5029431;28;21307;-69
2022/08/19 07:28:48;;;;;;;69.27;46.60;;;21.00;99.90;;;;;;5028068;28;20459;-69
2022/08/19 07:31:19;;;;;;;55.10;43.60;;;21.10;99.90;;;;;;5028317;28;20481;-69
2022/08/19 07:33:47;;;;;;;61.57;47.37;;;21.10;99.90;;;;;;5029336;28;20495;-69
2022/08/19 07:36:18;;;;;;;52.20;41.77;;;21.10;99.90;;;;;;5029914;28;20521;-66
2022/08/19 07:38:48;;;;;;;58.00;45.20;;;21.20;99.90;;;;;;5029046;28;20475;-69
2022/08/19 07:41:21;;;;;;;48.37;42.97;;;21.10;99.90;;;;;;5029730;28;20468;-67
2022/08/19 07:43:49;;;;;;;50.23;44.80;;;21.20;99.90;;;;;;5030093;28;20908;-68
2022/08/19 07:46:17;;;;;;;52.00;41.70;;;21.10;99.90;;;;;;5028454;28;20859;-68
2022/08/19 07:48:46;;;;;;;48.17;40.60;;;21.00;99.90;;;;;;5029031;28;20452;-68
2022/08/19 07:51:19;;;;;;;46.57;40.13;;;21.10;99.90;;;;;;5029892;28;20468;-68
2022/08/19 07:53:47;;;;;;;50.07;40.70;;;21.20;99.90;;;;;;5027587;28;20459;-68
2022/08/19 07:56:15;;;;;;;55.53;40.67;;;21.20;99.90;;;;;;5027054;28;21059;-67
2022/08/19 07:58:44;;;;;;;49.70;39.17;;;21.30;99.90;;;;;;5028913;28;20467;-69
2022/08/19 08:01:12;;;;;;;45.77;39.97;;;21.50;99.90;;;;;;5028171;28;20529;-67
2022/08/19 08:09:11;;;;;;;46.10;38.13;;;21.70;99.90;;;;;;5027643;28;20462;-67
2022/08/19 08:11:39;;;;;;;46.53;41.50;;;21.70;99.90;;;;;;5027534;28;20466;-67
2022/08/19 08:14:06;;;;;;;45.23;40.10;;;21.70;99.90;;;;;;5026953;28;20467;-66
2022/08/19 08:16:36;;;;;;;41.30;36.80;;;21.90;99.90;;;;;;5028723;28;20749;-68
2022/08/19 08:19:05;;;;;;;43.87;37.00;;;22.10;99.90;;;;;;5028564;28;20463;-66
2022/08/19 08:21:33;;;;;;;38.10;34.40;;;22.50;99.90;;;;;;5028254;28;20468;-65
2022/08/19 08:24:00;;;;;;;35.90;32.43;;;22.70;99.90;;;;;;5028777;28;20506;-68
2022/08/19 08:26:27;;;;;;;33.87;30.40;;;22.70;99.90;;;;;;5027155;28;20794;-66
2022/08/19 08:28:54;;;;;;;30.97;27.90;;;22.80;99.90;;;;;;5028706;28;21174;-67
2022/08/19 08:31:21;;;;;;;33.43;30.27;;;22.90;99.90;;;;;;5029150;28;20455;-65
2022/08/19 08:33:49;;;;;;;34.03;30.73;;;22.90;99.90;;;;;;5028970;28;20478;-68
2022/08/19 08:36:16;;;;;;;32.07;28.67;;;22.90;99.90;;;;;;5027334;28;21804;-68
2022/08/19 08:38:46;;;;;;;29.77;27.17;;;23.20;99.90;;;;;;5029123;28;20931;-69
2022/08/19 08:41:23;;;;;;;30.60;27.40;;;23.50;99.90;;;;;;5027828;28;20936;-68
2022/08/19 08:43:52;;;;;;;31.33;28.53;;;23.70;99.90;;;;;;5026935;28;20464;-67
2022/08/19 08:46:25;;;;;;;29.90;27.30;;;24.10;99.90;;;;;;5028315;28;20494;-69
2022/08/19 08:48:55;;;;;;;31.03;28.23;;;24.20;99.90;;;;;;5028362;28;20775;-69
2022/08/19 08:51:26;;;;;;;30.37;27.27;;;24.30;99.90;;;;;;5028387;28;20472;-69
2022/08/19 08:53:55;;;;;;;27.90;25.40;;;24.50;99.90;;;;;;5029195;28;20488;-68
2022/08/19 08:59:09;;;;;;;30.67;27.90;;;25.10;99.90;;;;;;5027054;28;20526;-68
2022/08/19 09:01:36;;;;;;;32.67;29.67;;;25.40;99.90;;;;;;5028464;28;21384;-68
2022/08/19 09:04:05;;;;;;;33.07;30.03;;;25.30;99.90;;;;;;5028534;28;20886;-69
2022/08/19 09:06:39;;;;;;;35.60;31.93;;;25.60;99.90;;;;;;5031688;28;21033;-67
2022/08/19 09:09:16;;;;;;;35.80;32.27;;;25.30;99.90;;;;;;5028938;28;20906;-67
2022/08/19 09:11:57;;;;;;;35.37;32.07;;;24.80;99.90;;;;;;5027502;28;21455;-67
2022/08/19 09:14:40;;;;;;;38.50;34.40;;;24.30;99.90;;;;;;5030584;28;20462;-68
2022/08/19 09:17:08;;;;;;;35.97;32.33;;;24.30;99.90;;;;;;5031146;28;20472;-67
2022/08/19 09:19:36;;;;;;;37.50;33.63;;;24.70;99.90;;;;;;5031854;28;21026;-67
2022/08/19 09:22:05;;;;;;;36.80;33.47;;;24.90;99.90;;;;;;5031945;28;20524;-67
2022/08/19 09:24:33;;;;;;;35.70;32.47;;;25.50;99.90;;;;;;5029609;28;20474;-68
2022/08/19 09:26:59;;;;;;;36.47;32.97;;;25.40;99.90;;;;;;5028579;28;20491;-69
2022/08/19 09:29:26;;;;;;;34.93;31.97;;;25.60;99.90;;;;;;5030044;28;20478;-70
2022/08/19 09:31:53;;;;;;;37.03;33.23;;;25.70;99.90;;;;;;5027563;28;20464;-70
2022/08/19 09:34:21;;;;;;;33.77;30.67;;;25.90;99.90;;;;;;5029078;28;20473;-68
2022/08/19 09:36:53;;;;;;;37.37;32.10;;;25.90;99.90;;;;;;5028939;28;20464;-69
2022/08/19 09:39:20;;;;;;;33.03;30.23;;;26.20;99.90;;;;;;5029249;28;20463;-69
2022/08/19 09:41:49;;;;;;;33.57;30.47;;;26.50;99.90;;;;;;5029477;28;20558;-70
2022/08/19 09:44:16;;;;;;;31.67;28.87;;;26.40;99.90;;;;;;5030496;28;20998;-68
2022/08/19 09:46:43;;;;;;;34.23;31.10;;;26.70;99.90;;;;;;5030122;28;20490;-69
2022/08/19 09:49:10;;;;;;;32.23;29.30;;;26.90;99.90;;;;;;5029407;28;20914;-69
2022/08/19 09:51:37;;;;;;;31.17;28.57;;;26.70;99.90;;;;;;5029128;28;20486;-68
2022/08/19 09:54:04;;;;;;;30.73;28.00;;;26.70;99.90;;;;;;5029137;28;20715;-69
2022/08/19 09:56:32;;;;;;;32.43;29.73;;;26.90;99.90;;;;;;5030100;28;20470;-69
2022/08/19 09:59:01;;;;;;;32.23;29.50;;;26.70;99.90;;;;;;5028714;28;20464;-68
2022/08/19 10:01:30;;;;;;;35.20;31.93;;;26.40;99.90;;;;;;5027715;28;20624;-68
2022/08/19 10:03:59;;;;;;;30.47;27.77;;;26.30;99.90;;;;;;5027917;28;20515;-68
2022/08/19 10:06:32;;;;;;;32.33;29.53;;;26.20;99.90;;;;;;5027556;28;20852;-68
2022/08/19 10:08:59;;;;;;;31.70;28.60;;;26.80;99.90;;;;;;5027215;28;20847;-70
2022/08/19 10:11:27;;;;;;;32.97;29.97;;;27.40;99.90;;;;;;5027732;28;20466;-69
2022/08/19 10:13:54;;;;;;;31.93;29.17;;;27.50;99.90;;;;;;5026379;28;20559;-70
2022/08/19 10:16:24;;;;;;;30.03;27.30;;;27.70;99.90;;;;;;5027051;28;20493;-68
2022/08/19 10:18:52;;;;;;;30.40;27.53;;;27.60;99.90;;;;;;5027567;28;20464;-68
2022/08/19 10:21:22;;;;;;;30.67;28.27;;;28.40;99.90;;;;;;5026815;28;20471;-67
2022/08/19 10:23:50;;;;;;;28.13;25.73;;;29.10;99.90;;;;;;5027682;28;20486;-68
2022/08/19 10:26:21;;;;;;;29.07;26.70;;;29.60;99.90;;;;;;5028065;28;20471;-68
2022/08/19 10:28:48;;;;;;;30.30;27.70;;;30.20;99.90;;;;;;5028059;28;20463;-68
2022/08/19 10:31:19;;;;;;;29.97;27.70;;;30.10;99.90;;;;;;5028850;28;20474;-68
2022/08/19 10:33:48;;;;;;;31.97;29.50;;;29.70;99.90;;;;;;5028288;28;20568;-67
2022/08/19 10:36:18;;;;;;;31.70;29.10;;;29.00;99.90;;;;;;5028100;28;20507;-67
2022/08/19 10:38:46;;;;;;;34.27;31.40;;;28.40;99.90;;;;;;5028545;28;20474;-67
2022/08/19 10:41:15;;;;;;;34.00;30.90;;;27.80;99.90;;;;;;5028063;28;20491;-67
2022/08/19 10:43:44;;;;;;;33.70;30.63;;;27.80;99.90;;;;;;5028454;28;20462;-68
2022/08/19 10:46:14;;;;;;;33.50;30.60;;;27.60;99.90;;;;;;5027835;28;20467;-67
2022/08/19 10:48:41;;;;;;;33.97;30.87;;;27.80;99.90;;;;;;5027813;28;20562;-67
2022/08/19 10:53:56;;;;;;;33.43;30.43;;;27.80;99.90;;;;;;5027725;28;20517;-68
2022/08/19 10:59:08;;;;;;;33.27;30.33;;;28.20;99.90;;;;;;5034387;28;20508;-67
2022/08/19 11:01:36;;;;;;;33.33;30.40;;;27.90;99.90;;;;;;5055585;28;20460;-67
2022/08/19 11:04:04;;;;;;;30.53;28.03;;;28.20;99.90;;;;;;5034357;28;20456;-68
2022/08/19 11:06:33;;;;;;;31.30;28.07;;;28.70;99.90;;;;;;5027588;28;20838;-68
2022/08/19 11:09:01;;;;;;;30.00;27.70;;;29.00;99.90;;;;;;5028171;28;20470;-69
2022/08/19 11:11:28;;;;;;;32.10;29.40;;;29.30;99.90;;;;;;5026125;28;20491;-68
2022/08/19 11:13:55;;;;;;;29.33;26.97;;;29.60;99.80;;;;;;5026343;28;20465;-69
2022/08/19 11:16:24;;;;;;;28.53;26.33;;;29.10;99.60;;;;;;5026903;28;20495;-68
2022/08/19 11:18:53;;;;;;;28.80;26.13;;;29.70;99.50;;;;;;5027254;28;20573;-68
2022/08/19 11:21:22;;;;;;;28.73;26.50;;;29.60;98.00;;;;;;5027259;28;20467;-68
2022/08/19 11:23:53;;;;;;;26.80;24.37;;;29.60;98.20;;;;;;5026094;28;20447;-68
2022/08/19 11:26:22;;;;;;;28.70;26.60;;;30.30;96.80;;;;;;5026624;28;20479;-67
2022/08/19 11:28:51;;;;;;;27.47;25.47;;;30.30;95.50;;;;;;5026320;28;20479;-67
2022/08/19 11:31:20;;;;;;;25.17;23.20;;;30.60;95.60;;;;;;5025155;28;20947;-69
2022/08/19 11:33:50;;;;;;;26.87;24.97;;;30.90;94.20;;;;;;5022273;28;20444;-67
2022/08/19 11:36:18;;;;;;;24.77;22.97;;;30.80;93.30;;;;;;5025259;28;20470;-68
2022/08/19 11:38:48;;;;;;;29.00;26.50;;;30.60;92.00;;;;;;5026905;28;20452;-67
2022/08/19 11:41:17;;;;;;;28.90;26.23;;;30.30;93.80;;;;;;5026467;28;20546;-67
2022/08/19 11:43:45;;;;;;;26.37;24.03;;;30.30;93.70;;;;;;5026792;28;20456;-67
2022/08/19 11:46:17;;;;;;;24.53;22.77;;;30.20;92.90;;;;;;5027166;28;20576;-68
2022/08/19 11:48:44;;;;;;;26.23;23.97;;;30.00;93.50;;;;;;5025137;28;20467;-68
2022/08/19 11:51:14;;;;;;;24.30;22.50;;;30.30;92.20;;;;;;5026450;28;20534;-68
2022/08/19 11:53:41;;;;;;;23.73;22.10;;;30.20;92.30;;;;;;5025262;28;21011;-68
2022/08/19 11:56:09;;;;;;;24.40;22.60;;;30.40;91.50;;;;;;5025339;28;20968;-69
2022/08/19 11:58:41;;;;;;;26.13;24.20;;;30.40;91.60;;;;;;5026947;28;20455;-68
2022/08/19 12:01:10;;;;;;;24.20;22.50;;;30.80;91.20;;;;;;5054139;28;20474;-68
2022/08/19 12:03:38;;;;;;;24.30;22.50;;;31.30;90.00;;;;;;5052552;28;20463;-68
2022/08/19 12:06:06;;;;;;;27.83;25.73;;;31.00;91.60;;;;;;5057302;28;20546;-69
2022/08/19 12:08:33;;;;;;;25.77;23.90;;;31.30;90.20;;;;;;5028853;28;20491;-69
2022/08/19 12:11:01;;;;;;;24.43;22.83;;;31.50;90.60;;;;;;5024730;28;20686;-69
2022/08/19 12:13:30;;;;;;;26.10;24.30;;;32.00;88.70;;;;;;5025755;28;20476;-68
2022/08/19 12:15:59;;;;;;;25.57;23.80;;;32.10;87.10;;;;;;5025606;28;20493;-69
2022/08/19 12:18:26;;;;;;;25.10;23.30;;;32.20;86.50;;;;;;5025173;28;20609;-68
2022/08/19 12:20:56;;;;;;;23.83;21.73;;;32.90;84.30;;;;;;5026093;28;20551;-69
2022/08/19 12:23:23;;;;;;;24.53;22.83;;;33.20;83.50;;;;;;5027222;28;20467;-69
2022/08/19 12:25:51;;;;;;;22.67;20.70;;;33.10;77.80;;;;;;5042316;28;20982;-67
2022/08/19 12:28:20;;;;;;;22.50;21.03;;;32.80;76.90;;;;;;5049923;28;20519;-69
2022/08/19 12:30:46;;;;;;;22.87;21.10;;;33.00;77.60;;;;;;5060643;28;20471;-68
2022/08/19 12:33:16;;;;;;;24.27;22.67;;;33.00;76.80;;;;;;5057099;28;20475;-68
2022/08/19 12:35:46;;;;;;;24.43;22.53;;;32.90;76.90;;;;;;5033148;28;21034;-69
2022/08/19 12:38:14;;;;;;;20.47;19.17;;;32.50;77.70;;;;;;5025953;28;20590;-69
2022/08/19 12:40:41;;;;;;;20.60;19.07;;;32.20;73.00;;;;;;5028767;28;20837;-69
2022/08/19 12:43:08;;;;;;;20.20;18.80;;;32.00;74.60;;;;;;5028688;28;20475;-68
2022/08/19 12:45:35;;;;;;;21.90;20.40;;;32.20;75.30;;;;;;5029150;28;20474;-69
2022/08/19 12:48:03;;;;;;;20.90;19.20;;;32.40;75.10;;;;;;5029180;28;20494;-69
2022/08/19 12:50:31;;;;;;;20.63;18.97;;;32.40;71.60;;;;;;5028177;28;20896;-70
2022/08/19 12:52:58;;;;;;;19.20;17.80;;;32.20;69.70;;;;;;5030028;28;20974;-69